createdAt,value
2023-12-22T00:00:01.963Z,2.72
2023-12-22T00:02:33.298Z,2.65
2023-12-22T00:05:00.456Z,2.61
2023-12-22T00:07:27.784Z,2.57
2023-12-22T00:09:54.846Z,2.56
2023-12-22T00:12:21.800Z,2.53
2023-12-22T00:14:48.767Z,2.49
2023-12-22T00:17:15.815Z,2.48
2023-12-22T00:19:43.033Z,2.47
2023-12-22T00:22:10.156Z,2.47
2023-12-22T00:24:37.209Z,2.48
2023-12-22T00:27:04.440Z,2.45
2023-12-22T00:29:31.530Z,2.44
2023-12-22T00:31:58.590Z,2.43
2023-12-22T00:34:25.568Z,2.42
2023-12-22T00:36:52.761Z,2.41
2023-12-22T00:39:19.765Z,2.38
2023-12-22T00:41:46.744Z,2.37
2023-12-22T00:44:13.861Z,2.34
2023-12-22T00:46:40.865Z,2.31
2023-12-22T00:49:08.791Z,2.24
2023-12-22T00:51:35.901Z,2.19
2023-12-22T00:54:02.858Z,2.16
2023-12-22T00:56:29.868Z,2.12
2023-12-22T00:59:02.229Z,2.09
2023-12-22T01:01:35.866Z,2.03
2023-12-22T01:04:02.893Z,1.98
2023-12-22T01:06:32.328Z,1.96
2023-12-22T01:08:59.674Z,1.93
2023-12-22T01:11:26.730Z,1.96
2023-12-22T01:13:53.888Z,1.95
2023-12-22T01:16:23.627Z,1.95
2023-12-22T01:18:52.042Z,1.97
2023-12-22T01:21:19.546Z,1.99
2023-12-22T01:23:46.814Z,2.04
2023-12-22T01:26:13.790Z,2.12
2023-12-22T01:28:40.816Z,2.24
2023-12-22T01:31:07.890Z,2.29
2023-12-22T01:33:35.061Z,2.37
2023-12-22T01:36:02.136Z,2.44
2023-12-22T01:38:29.131Z,2.52
2023-12-22T01:40:56.158Z,2.54
2023-12-22T01:43:23.604Z,2.55
2023-12-22T01:45:57.633Z,2.59
2023-12-22T01:48:26.222Z,2.60
2023-12-22T01:50:54.244Z,2.62
2023-12-22T01:53:22.040Z,2.61
2023-12-22T01:55:51.735Z,2.66
2023-12-22T01:58:21.158Z,2.61
2023-12-22T02:00:48.410Z,2.57
2023-12-22T02:03:16.034Z,2.57
2023-12-22T02:05:54.034Z,2.56
2023-12-22T02:08:24.035Z,2.59
2023-12-22T02:10:51.144Z,2.58
2023-12-22T02:13:18.605Z,2.62
2023-12-22T02:15:50.613Z,2.66
2023-12-22T02:18:27.950Z,2.70
2023-12-22T02:20:55.127Z,2.80
2023-12-22T02:23:22.369Z,2.87
2023-12-22T02:25:53.911Z,2.89
2023-12-22T02:28:24.536Z,2.94
2023-12-22T02:31:01.917Z,2.99
2023-12-22T02:33:30.918Z,2.97
2023-12-22T02:36:04.867Z,3.03
2023-12-22T02:38:34.705Z,3.08
2023-12-22T02:41:02.042Z,3.08
2023-12-22T02:43:30.403Z,3.08
2023-12-22T02:45:57.439Z,3.08
2023-12-22T02:48:24.579Z,3.02
2023-12-22T02:50:51.683Z,3.04
2023-12-22T02:53:18.694Z,2.99
2023-12-22T02:55:45.835Z,3.00
2023-12-22T02:58:12.811Z,3.00
2023-12-22T03:00:40.013Z,3.03
2023-12-22T03:03:07.050Z,3.02
2023-12-22T03:05:34.440Z,3.01
2023-12-22T03:08:01.631Z,2.98
2023-12-22T03:10:31.201Z,2.95
2023-12-22T03:12:58.259Z,2.98
2023-12-22T03:15:25.246Z,2.97
2023-12-22T03:17:52.568Z,2.99
2023-12-22T03:20:19.857Z,2.95
2023-12-22T03:22:46.934Z,2.96
2023-12-22T03:25:14.045Z,3.00
2023-12-22T03:27:41.123Z,2.97
2023-12-22T03:30:08.705Z,2.92
2023-12-22T03:32:35.772Z,2.77
2023-12-22T03:35:02.936Z,2.92
2023-12-22T03:37:32.993Z,2.95
2023-12-22T03:40:00.154Z,2.96
2023-12-22T03:42:27.205Z,2.95
2023-12-22T03:44:54.185Z,2.92
2023-12-22T03:47:21.127Z,2.99
2023-12-22T03:49:48.202Z,2.98
2023-12-22T03:52:15.998Z,2.98
2023-12-22T03:54:43.051Z,2.96
2023-12-22T03:57:10.077Z,2.92
2023-12-22T03:59:37.067Z,2.92
2023-12-22T04:02:04.474Z,2.90
2023-12-22T04:04:31.889Z,2.87
2023-12-22T04:06:59.053Z,2.86
2023-12-22T04:09:25.965Z,2.88
2023-12-22T04:11:52.987Z,2.85
2023-12-22T04:14:20.104Z,2.86
2023-12-22T04:16:47.524Z,2.87
2023-12-22T04:19:14.791Z,2.87
2023-12-22T04:21:41.781Z,2.86
2023-12-22T04:24:08.918Z,2.91
2023-12-22T04:26:35.861Z,2.85
2023-12-22T04:29:03.224Z,2.85
2023-12-22T04:31:30.333Z,2.86
2023-12-22T04:33:57.371Z,2.88
2023-12-22T04:36:24.693Z,2.86
2023-12-22T04:38:51.713Z,2.85
2023-12-22T04:41:18.736Z,2.86
2023-12-22T04:43:45.802Z,2.86
2023-12-22T04:46:12.967Z,2.85
2023-12-22T04:48:40.206Z,2.83
2023-12-22T04:51:07.186Z,2.84
2023-12-22T04:53:34.533Z,2.84
2023-12-22T04:56:01.812Z,2.82
2023-12-22T04:58:28.979Z,2.80
2023-12-22T05:00:56.332Z,2.78
2023-12-22T05:03:23.573Z,2.68
2023-12-22T05:05:50.552Z,2.81
2023-12-22T05:08:17.692Z,2.82
2023-12-22T05:10:44.848Z,2.80
2023-12-22T05:13:12.037Z,2.80
2023-12-22T05:15:39.142Z,2.80
2023-12-22T05:18:06.335Z,2.82
2023-12-22T05:20:33.749Z,2.77
2023-12-22T05:23:00.869Z,2.76
2023-12-22T05:25:28.171Z,2.76
2023-12-22T05:27:55.179Z,2.75
2023-12-22T05:30:22.549Z,2.74
2023-12-22T05:32:49.634Z,2.76
2023-12-22T05:35:16.692Z,2.76
2023-12-22T05:37:43.882Z,2.75
2023-12-22T05:40:11.268Z,2.70
2023-12-22T05:42:38.617Z,2.75
2023-12-22T05:45:07.690Z,2.79
2023-12-22T05:47:34.923Z,2.82
2023-12-22T05:50:02.460Z,2.78
2023-12-22T05:52:31.357Z,2.76
2023-12-22T05:54:58.355Z,2.76
2023-12-22T05:57:28.635Z,2.71
2023-12-22T05:59:59.814Z,2.66
2023-12-22T06:02:27.166Z,2.63
2023-12-22T06:04:54.515Z,2.56
2023-12-22T06:07:21.843Z,2.46
2023-12-22T06:09:51.024Z,2.45
2023-12-22T06:12:18.234Z,2.43
2023-12-22T06:14:53.603Z,2.43
2023-12-22T06:17:20.737Z,2.49
2023-12-22T06:19:49.058Z,2.48
2023-12-22T06:22:16.064Z,2.48
2023-12-22T06:24:43.020Z,2.43
2023-12-22T06:27:09.989Z,2.36
2023-12-22T06:29:46.713Z,2.37
2023-12-22T06:32:16.630Z,2.44
2023-12-22T06:34:44.991Z,2.46
2023-12-22T06:37:13.037Z,2.43
2023-12-22T06:39:40.187Z,2.45
2023-12-22T06:42:12.116Z,2.52
2023-12-22T06:44:42.476Z,2.57
2023-12-22T06:47:09.526Z,2.66
2023-12-22T06:49:36.704Z,2.73
2023-12-22T06:52:04.072Z,2.70
2023-12-22T06:54:31.328Z,2.72
2023-12-22T06:56:58.558Z,2.78
2023-12-22T06:59:26.440Z,2.76
2023-12-22T07:02:02.797Z,2.84
2023-12-22T07:04:37.583Z,2.88
2023-12-22T07:07:04.669Z,2.90
2023-12-22T07:09:32.094Z,2.95
2023-12-22T07:11:59.835Z,2.97
2023-12-22T07:14:26.968Z,2.93
2023-12-22T07:16:54.177Z,3.01
2023-12-22T07:19:21.298Z,3.07
2023-12-22T07:21:48.369Z,3.09
2023-12-22T07:24:16.450Z,3.08
2023-12-22T07:26:45.882Z,3.08
2023-12-22T07:29:13.863Z,3.11
2023-12-22T07:31:41.252Z,3.14
2023-12-22T07:34:09.596Z,3.15
2023-12-22T07:36:43.544Z,3.16
2023-12-22T07:39:17.178Z,3.12
2023-12-22T07:41:45.190Z,3.07
2023-12-22T07:44:12.403Z,3.10
2023-12-22T07:46:39.741Z,3.14
2023-12-22T07:49:07.377Z,3.11
2023-12-22T07:51:34.906Z,3.04
2023-12-22T07:54:02.249Z,3.09
2023-12-22T07:56:29.339Z,3.08
2023-12-22T07:59:05.154Z,3.17
2023-12-22T08:01:44.659Z,3.26
2023-12-22T08:04:12.135Z,3.45
2023-12-22T08:06:39.419Z,3.52
2023-12-22T08:09:07.253Z,3.51
2023-12-22T08:11:34.327Z,3.54
2023-12-22T08:14:01.348Z,3.63
2023-12-22T08:16:28.540Z,3.71
2023-12-22T08:18:55.574Z,3.76
2023-12-22T08:21:29.380Z,3.79
2023-12-22T08:24:06.016Z,3.77
2023-12-22T08:26:33.179Z,3.85
2023-12-22T08:29:00.325Z,3.99
2023-12-22T08:31:27.586Z,4.06
2023-12-22T08:33:54.629Z,4.08
2023-12-22T08:36:21.660Z,4.15
2023-12-22T08:38:49.050Z,4.19
2023-12-22T08:41:16.758Z,4.17
2023-12-22T08:43:44.048Z,4.21
2023-12-22T08:46:11.152Z,4.36
2023-12-22T08:48:39.847Z,4.49
2023-12-22T09:01:54.115Z,4.44
2023-12-22T09:04:24.085Z,4.44
2023-12-22T09:06:51.992Z,4.47
2023-12-22T09:09:19.755Z,4.45
2023-12-22T09:11:48.135Z,4.42
2023-12-22T09:14:17.683Z,4.41
2023-12-22T09:16:46.936Z,4.56
2023-12-22T09:19:14.116Z,4.66
2023-12-22T09:21:41.169Z,4.68
2023-12-22T09:24:08.106Z,4.56
2023-12-22T09:26:35.216Z,4.67
2023-12-22T09:29:02.235Z,4.65
2023-12-22T09:31:29.265Z,4.64
2023-12-22T09:33:56.472Z,4.62
2023-12-22T09:36:23.516Z,4.66
2023-12-22T09:38:50.641Z,4.76
2023-12-22T09:41:17.753Z,4.80
2023-12-22T09:43:49.745Z,4.84
2023-12-22T09:46:19.146Z,4.81
2023-12-22T09:48:47.012Z,4.71
2023-12-22T09:51:15.494Z,4.63
2023-12-22T09:53:44.035Z,4.55
2023-12-22T09:56:11.813Z,4.56
2023-12-22T09:58:41.799Z,4.55
2023-12-22T10:01:10.148Z,4.49
2023-12-22T10:03:38.870Z,4.31
2023-12-22T10:06:06.382Z,4.16
2023-12-22T10:08:34.094Z,4.20
2023-12-22T10:11:01.294Z,4.19
2023-12-22T10:13:29.498Z,4.15
2023-12-22T10:15:57.367Z,4.19
2023-12-22T10:18:25.549Z,4.13
2023-12-22T10:20:52.676Z,4.21
2023-12-22T10:23:19.668Z,4.24
2023-12-22T10:25:48.663Z,4.25
2023-12-22T10:28:16.187Z,4.20
2023-12-22T10:30:43.842Z,4.24
2023-12-22T10:33:10.866Z,4.16
2023-12-22T10:35:38.060Z,4.05
2023-12-22T10:38:05.825Z,3.92
2023-12-22T10:40:32.891Z,3.84
2023-12-22T10:43:01.823Z,3.78
2023-12-22T10:45:32.102Z,3.79
2023-12-22T10:48:00.945Z,3.76
2023-12-22T10:50:29.345Z,3.71
2023-12-22T10:52:56.487Z,3.65
2023-12-22T10:55:24.181Z,3.66
2023-12-22T10:57:51.797Z,3.66
2023-12-22T11:00:21.612Z,3.65
2023-12-22T11:02:50.506Z,3.62
2023-12-22T11:05:20.859Z,3.59
2023-12-22T11:07:51.809Z,3.58
2023-12-22T11:10:22.631Z,3.58
2023-12-22T11:12:51.313Z,3.59
2023-12-22T11:15:20.775Z,3.59
2023-12-22T11:17:53.936Z,3.60
2023-12-22T11:20:24.389Z,3.61
2023-12-22T11:22:53.475Z,3.57
2023-12-22T11:25:27.842Z,3.53
2023-12-22T11:27:56.965Z,3.47
2023-12-22T11:30:32.686Z,3.41
2023-12-22T11:33:05.676Z,3.38
2023-12-22T11:35:33.844Z,3.28
2023-12-22T11:38:04.244Z,3.27
2023-12-22T11:40:31.509Z,3.21
2023-12-22T11:43:00.889Z,3.14
2023-12-22T11:45:32.099Z,3.05
2023-12-22T11:48:07.574Z,3.02
2023-12-22T11:50:34.748Z,3.01
2023-12-22T11:53:23.329Z,2.94
2023-12-22T11:56:02.860Z,2.86
2023-12-22T11:58:44.466Z,2.81
2023-12-22T12:01:13.255Z,2.75
2023-12-22T12:03:48.970Z,2.73
2023-12-22T12:06:19.904Z,2.77
2023-12-22T12:08:47.130Z,2.71
2023-12-22T12:11:14.714Z,2.72
2023-12-22T12:13:48.294Z,2.66
2023-12-22T12:16:17.570Z,2.63
2023-12-22T12:18:46.002Z,2.59
2023-12-22T12:21:13.173Z,2.56
2023-12-22T12:23:42.442Z,2.51
2023-12-22T12:26:10.373Z,2.49
2023-12-22T12:28:38.195Z,2.46
2023-12-22T12:31:07.548Z,2.43
2023-12-22T12:33:36.714Z,2.41
2023-12-22T12:36:05.780Z,2.45
2023-12-22T12:39:09.782Z,2.31
2023-12-22T12:41:47.467Z,2.31
2023-12-22T12:44:16.205Z,2.22
2023-12-22T12:46:43.589Z,2.22
2023-12-22T12:49:13.154Z,2.20
2023-12-22T12:51:41.776Z,2.19
2023-12-22T12:54:10.011Z,2.14
2023-12-22T12:56:42.342Z,2.10
2023-12-22T12:59:13.920Z,2.01
2023-12-22T13:01:47.046Z,1.90
2023-12-22T13:04:15.204Z,1.93
2023-12-22T13:06:45.580Z,1.93
2023-12-22T13:09:14.855Z,1.98
2023-12-22T13:11:45.275Z,1.99
2023-12-22T13:14:12.443Z,2.06
2023-12-22T13:16:41.053Z,2.11
2023-12-22T13:19:08.713Z,2.20
2023-12-22T13:21:36.115Z,2.22
2023-12-22T13:24:13.894Z,2.26
2023-12-22T13:26:41.793Z,2.32
2023-12-22T13:29:10.049Z,2.31
2023-12-22T13:31:47.059Z,2.28
2023-12-22T13:34:15.313Z,2.24
2023-12-22T13:36:45.476Z,2.25
2023-12-22T13:39:15.463Z,2.21
2023-12-22T13:41:47.235Z,2.12
2023-12-22T13:44:15.512Z,2.10
2023-12-22T13:46:44.032Z,2.19
2023-12-22T13:49:12.088Z,2.20
2023-12-22T13:51:46.150Z,2.17
2023-12-22T13:54:13.483Z,2.25
2023-12-22T13:56:45.292Z,2.31
2023-12-22T13:59:13.069Z,2.36
2023-12-22T14:01:41.624Z,2.36
2023-12-22T14:04:11.616Z,2.39
2023-12-22T14:06:39.621Z,2.36
2023-12-22T14:09:06.580Z,2.38
2023-12-22T14:11:33.732Z,2.40
2023-12-22T14:14:01.081Z,2.41
2023-12-22T14:16:28.152Z,2.44
2023-12-22T14:18:56.606Z,2.45
2023-12-22T14:21:23.727Z,2.41
2023-12-22T14:23:51.765Z,2.44
2023-12-22T14:26:18.767Z,2.52
2023-12-22T14:28:48.499Z,2.54
2023-12-22T14:31:15.745Z,2.58
2023-12-22T14:33:42.794Z,2.60
2023-12-22T14:36:10.121Z,2.63
2023-12-22T14:38:37.146Z,2.67
2023-12-22T14:41:04.691Z,2.67
2023-12-22T14:43:31.770Z,2.69
2023-12-22T14:45:58.935Z,2.69
2023-12-22T14:48:26.033Z,2.72
2023-12-22T14:50:53.190Z,2.74
2023-12-22T14:53:21.044Z,2.77
2023-12-22T14:55:48.202Z,2.81
2023-12-22T14:58:16.191Z,2.82
2023-12-22T15:00:43.373Z,2.82
2023-12-22T15:03:10.645Z,2.76
2023-12-22T15:05:38.173Z,2.72
2023-12-22T15:08:08.561Z,2.80
2023-12-22T15:10:36.372Z,2.78
2023-12-22T15:13:03.483Z,2.77
2023-12-22T15:15:30.561Z,2.73
2023-12-22T15:17:57.678Z,2.76
2023-12-22T15:20:24.738Z,2.78
2023-12-22T15:22:52.313Z,2.76
2023-12-22T15:25:22.568Z,2.79
2023-12-22T15:27:49.866Z,2.73
2023-12-22T15:30:17.104Z,2.72
2023-12-22T15:32:44.162Z,2.60
2023-12-22T15:35:11.851Z,2.70
2023-12-22T15:37:39.324Z,2.65
2023-12-22T15:40:06.926Z,2.62
2023-12-22T15:42:33.964Z,2.63
2023-12-22T15:45:02.097Z,2.61
2023-12-22T15:47:31.777Z,2.66
2023-12-22T15:49:59.014Z,2.69
2023-12-22T15:52:26.077Z,2.67
2023-12-22T15:54:53.409Z,2.65
2023-12-22T15:57:20.417Z,2.69
2023-12-22T15:59:47.529Z,2.71
2023-12-22T16:02:14.982Z,2.69
2023-12-22T16:04:43.771Z,2.74
2023-12-22T16:07:10.799Z,2.75
2023-12-22T16:09:37.858Z,2.78
2023-12-22T16:12:05.510Z,2.86
2023-12-22T16:14:39.091Z,2.89
2023-12-22T16:17:06.429Z,2.99
2023-12-22T16:19:33.625Z,3.03
2023-12-22T16:22:00.754Z,3.07
2023-12-22T16:24:29.118Z,3.10
2023-12-22T16:26:56.163Z,3.12
2023-12-22T16:29:23.142Z,3.10
2023-12-22T16:31:51.021Z,3.07
2023-12-22T16:34:18.130Z,3.20
2023-12-22T16:36:48.205Z,3.20
2023-12-22T16:39:15.615Z,3.14
2023-12-22T16:41:46.170Z,3.11
2023-12-22T16:44:13.193Z,3.19
2023-12-22T16:46:40.207Z,3.21
2023-12-22T16:49:08.462Z,3.18
2023-12-22T16:51:36.604Z,3.24
2023-12-22T16:54:04.058Z,3.24
2023-12-22T16:56:31.236Z,3.30
2023-12-22T16:58:58.457Z,3.33
2023-12-22T17:01:38.961Z,3.33
2023-12-22T17:04:10.221Z,3.33
2023-12-22T17:06:48.136Z,3.33
2023-12-22T17:09:15.822Z,3.39
2023-12-22T17:11:43.014Z,3.40
2023-12-22T17:14:10.560Z,3.43
2023-12-22T17:16:38.460Z,3.43
2023-12-22T17:19:05.530Z,3.47
2023-12-22T17:21:32.783Z,3.44
2023-12-22T17:23:59.822Z,3.41
2023-12-22T17:26:26.829Z,3.42
2023-12-22T17:28:54.023Z,3.45
2023-12-22T17:31:21.067Z,3.47
2023-12-22T17:33:48.334Z,3.46
2023-12-22T17:36:15.548Z,3.47
2023-12-22T17:38:42.514Z,3.45
2023-12-22T17:41:09.693Z,3.50
2023-12-22T17:43:36.773Z,3.51
2023-12-22T17:46:04.321Z,3.49
2023-12-22T17:48:31.484Z,3.45
2023-12-22T17:50:58.681Z,3.51
2023-12-22T17:53:27.169Z,3.55
2023-12-22T17:55:54.412Z,3.54
2023-12-22T17:58:21.576Z,3.53
2023-12-22T18:00:48.949Z,3.52
2023-12-22T18:03:16.038Z,3.53
2023-12-22T18:05:44.013Z,3.55
2023-12-22T18:08:11.603Z,3.51
2023-12-22T18:10:41.243Z,3.55
2023-12-22T18:13:08.587Z,3.56
2023-12-22T18:15:35.652Z,3.57
2023-12-22T18:18:05.984Z,3.60
2023-12-22T18:20:34.793Z,3.66
2023-12-22T18:23:01.945Z,3.62
2023-12-22T18:25:29.686Z,3.62
2023-12-22T18:27:56.685Z,3.65
2023-12-22T18:30:23.694Z,3.63
2023-12-22T18:32:50.829Z,3.57
2023-12-22T18:35:18.144Z,3.57
2023-12-22T18:37:45.159Z,3.55
2023-12-22T18:40:12.900Z,3.57
2023-12-22T18:42:40.038Z,3.62
2023-12-22T18:45:07.427Z,3.65
2023-12-22T18:47:34.500Z,3.60
2023-12-22T18:50:01.612Z,3.56
2023-12-22T18:52:32.718Z,3.58
2023-12-22T18:54:59.769Z,3.59
2023-12-22T18:57:26.788Z,3.55
2023-12-22T18:59:57.100Z,3.54
2023-12-22T19:02:38.609Z,3.47
2023-12-22T19:05:11.455Z,3.39
2023-12-22T19:07:38.935Z,3.39
2023-12-22T19:10:06.287Z,3.31
2023-12-22T19:12:34.139Z,3.25
2023-12-22T19:15:01.396Z,3.24
2023-12-22T19:17:29.464Z,3.16
2023-12-22T19:19:56.510Z,3.06
2023-12-22T19:22:25.206Z,3.16
2023-12-22T19:24:55.490Z,3.15
2023-12-22T19:27:22.883Z,3.17
2023-12-22T19:29:50.159Z,3.21
2023-12-22T19:32:17.583Z,3.19
2023-12-22T19:34:49.204Z,3.14
2023-12-22T19:37:21.029Z,3.22
2023-12-22T19:39:48.082Z,3.23
2023-12-22T19:42:15.915Z,3.17
2023-12-22T19:44:43.085Z,3.17
2023-12-22T19:47:10.202Z,3.20
2023-12-22T19:49:37.628Z,3.21
2023-12-22T19:52:04.921Z,3.17
2023-12-22T19:54:31.932Z,3.16
2023-12-22T19:56:59.038Z,3.17
2023-12-22T19:59:26.074Z,3.21
2023-12-22T20:01:53.600Z,3.25
2023-12-22T20:04:21.577Z,3.21
2023-12-22T20:06:48.647Z,3.23
2023-12-22T20:09:16.855Z,3.28
2023-12-22T20:11:45.229Z,3.34
2023-12-22T20:14:12.518Z,3.33
2023-12-22T20:16:39.673Z,3.28
2023-12-22T20:19:06.837Z,3.31
2023-12-22T20:21:33.947Z,3.30
2023-12-22T20:24:01.129Z,3.31
2023-12-22T20:26:29.100Z,3.35
2023-12-22T20:28:56.117Z,3.38
2023-12-22T20:31:23.336Z,3.38
2023-12-22T20:33:53.455Z,3.40
2023-12-22T20:36:21.283Z,3.39
2023-12-22T20:38:48.461Z,3.36
2023-12-22T20:41:15.597Z,3.37
2023-12-22T20:43:42.889Z,3.40
2023-12-22T20:46:09.989Z,3.38
2023-12-22T20:48:37.339Z,3.31
2023-12-22T20:51:05.326Z,3.34
2023-12-22T20:53:32.468Z,3.43
2023-12-22T20:55:59.783Z,3.45
2023-12-22T20:58:27.263Z,3.41
2023-12-22T21:00:54.419Z,3.42
2023-12-22T21:03:21.619Z,3.42
2023-12-22T21:05:49.226Z,3.39
2023-12-22T21:08:16.769Z,3.42
2023-12-22T21:10:45.131Z,3.46
2023-12-22T21:13:12.335Z,3.42
2023-12-22T21:15:39.502Z,3.47
2023-12-22T21:18:06.659Z,3.49
2023-12-22T21:20:33.795Z,3.47
2023-12-22T21:23:02.148Z,3.51
2023-12-22T21:25:30.401Z,3.51
2023-12-22T21:27:57.434Z,3.46
2023-12-22T21:30:24.522Z,3.44
2023-12-22T21:32:51.590Z,3.49
2023-12-22T21:35:19.004Z,3.45
2023-12-22T21:37:47.690Z,3.50
2023-12-22T21:40:15.056Z,3.36
2023-12-22T21:42:42.110Z,3.50
2023-12-22T21:45:09.855Z,3.50
2023-12-22T21:47:38.893Z,3.47
2023-12-22T21:50:06.688Z,3.50
2023-12-22T21:52:33.814Z,3.49
2023-12-22T21:55:01.137Z,3.48
2023-12-22T21:57:30.941Z,3.52
2023-12-22T21:59:57.966Z,3.56
2023-12-22T22:02:24.998Z,3.54
2023-12-22T22:04:52.228Z,3.53
2023-12-22T22:07:19.194Z,3.55
2023-12-22T22:09:46.688Z,3.56
2023-12-22T22:12:13.652Z,3.56
2023-12-22T22:14:40.796Z,3.56
2023-12-22T22:17:07.833Z,3.59
2023-12-22T22:19:35.107Z,3.62
2023-12-22T22:22:02.558Z,3.63
2023-12-22T22:24:29.614Z,3.59
2023-12-22T22:26:56.564Z,3.61
2023-12-22T22:29:23.605Z,3.62
2023-12-22T22:31:50.660Z,3.65
2023-12-22T22:34:17.647Z,3.62
2023-12-22T22:36:44.805Z,3.64
2023-12-22T22:39:11.854Z,3.67
2023-12-22T22:41:40.117Z,3.67
2023-12-22T22:44:07.138Z,3.70
2023-12-22T22:46:34.402Z,3.69
2023-12-22T22:49:01.579Z,3.63
2023-12-22T22:51:28.772Z,3.66
2023-12-22T22:53:55.906Z,3.69
2023-12-22T22:56:23.048Z,3.68
2023-12-22T22:58:50.241Z,3.64
2023-12-22T23:01:17.412Z,3.65
2023-12-22T23:03:44.806Z,3.69
2023-12-22T23:06:12.047Z,3.68
2023-12-22T23:08:39.376Z,3.62
2023-12-22T23:11:06.422Z,3.63
2023-12-22T23:13:33.466Z,3.61
2023-12-22T23:16:00.647Z,3.59
2023-12-22T23:18:27.641Z,3.65
2023-12-22T23:20:54.791Z,3.68
2023-12-22T23:23:21.822Z,3.65
2023-12-22T23:25:49.897Z,3.62
2023-12-22T23:28:17.191Z,3.66
2023-12-22T23:30:44.517Z,3.66
2023-12-22T23:33:11.560Z,3.61
2023-12-22T23:35:38.821Z,3.65
2023-12-22T23:38:05.958Z,3.69
2023-12-22T23:40:32.941Z,3.71
2023-12-22T23:42:59.976Z,3.69
2023-12-22T23:45:26.997Z,3.69
2023-12-22T23:47:54.577Z,3.73
2023-12-22T23:50:21.776Z,3.73
2023-12-22T23:52:48.947Z,3.72
2023-12-22T23:55:16.312Z,3.62
2023-12-22T23:57:43.330Z,3.72
